Arthur Monteiro

Ojeador - Flamengo
25 Nov 2027
Jueves
Continuar

Personalidad

Adaptabilidad (9) Ambición (1) Controversia (16) Lealtad (4) Presión (13) Profesionalismo (19) Deportividad (20) Temperamento (10)

Perfil

Estilo de dirección Democrático
Licencia Continental C
Determinación 13
Gestión de personas 14
Motivación 10
Disciplina 8
Satisfacción laboral
98%
Fatiga
0%
Cargo Ojeador
Salario 103.7K p/s
Contrato 14.03.2028

Rendimiento

Comportamiento Bueno
Efectividad del entrenamiento
59%
Desarrollo de jugadores
35%
Prevención de lesiones
55%
Implementación táctica
80%

Eventos recientes

Asistió a una reunión de captación ahora
Recomendó un objetivo de fichaje ahora
Asistió a una reunión de captación 7d atrás
Recomendó un objetivo de fichaje 7d atrás
Asistió a una reunión de captación 7d atrás
Asistió a una reunión de captación 7d atrás
Asistió a una reunión de captación 14d atrás
Asistió a una reunión de captación 14d atrás

Actualmente siguiendo

237
Jugador Club Estado Habilidad Confianza Observado Última observación Último voto
Bruninho Bragantino Activo 133 / 136 42% 1 / 1m 25.08.2027 -
Ruan Tressoldi Atlético Mineiro Activo 118 / 124 83% 1 19.07.2027 Aprobar
Diego Hernández Sport Recife Activo 122 / 122 30% 1 / 1m 07.07.2027 -
Federico Chiesa Liverpool Activo 159 / 151 40% 5 30.05.2027 -
Bradley Barcola Liverpool Activo 158 / 161 40% 5 30.05.2027 -
Borja Sainz Fiorentina Activo 148 / 144 40% 8 30.05.2027 -
Jérémy Doku Manchester City Activo 173 / 161 40% 3 28.05.2027 -
Moisés Caicedo Chelsea Activo 165 / 164 40% 5 28.05.2027 -
Gabriel Martinelli Brighton Activo 165 / 165 40% 2 28.05.2027 -
Georginio Rutter Brighton Activo 151 / 149 40% 3 27.05.2027 -
Kai Havertz Arsenal Activo 162 / 158 40% 3 27.05.2027 -
Harry Clarke Preston Activo 126 / 126 40% 2 27.05.2027 -
Vinícius Júnior Arsenal Activo 180 / 171 40% 4 26.05.2027 -
Xavi Simons Tottenham Activo 162 / 157 40% 2 26.05.2027 -
Derensili Sanches Fernandes Huddersfield Town Activo 130 / 128 40% 2 25.05.2027 -
Cole Palmer Chelsea Activo 174 / 169 40% 2 25.05.2027 Más información
Harry Wilson Leeds United Activo 149 / 145 40% 2 24.05.2027 -
Phil Foden Manchester City Activo 176 / 170 40% 4 24.05.2027 -
Carlos Vicente Birmingham Activo 145 / 143 40% 4 23.05.2027 -
Kerem Aktürkoğlu Fenerbahce Activo 141 / 146 40% 2 23.05.2027 -
Callum Doyle Wrexham Activo 131 / 132 40% 2 23.05.2027 -
Amadou Onana Aston Villa Rechazado 153 / 156 40% 2 23.05.2027 Más información
Tyler Adams Bournemouth Activo 153 / 155 40% 2 22.05.2027 -
Reece James Chelsea Activo 175 / 170 40% 1 22.05.2027 -
Nuno Tavares Lazio Activo 150 / 147 40% 1 21.05.2027 -
Nico González Newcastle United Activo 156 / 159 40% 1 21.05.2027 -
Dango Ouattara Brentford Activo 145 / 140 40% 2 20.05.2027 -
Ronald Swansea City Activo 128 / 127 40% 1 20.05.2027 -
Matheus Araújo Oeste Activo 89 / 89 30% 1 / 1m 19.05.2027 -
Wellerson Sampaio Correa Activo 101 / 101 30% 1 / 1m 19.05.2027 -
Matthijs de Ligt Manchester United Activo 156 / 166 40% 2 17.05.2027 -
Curtis Jones Inter Activo 164 / 156 40% 4 17.05.2027 -
Alexander Isak Liverpool Activo 172 / 172 40% 2 17.05.2027 -
Isaiah Jones Luton Town Activo 128 / 129 40% 1 17.05.2027 -
Jan Paul van Hecke Tottenham Activo 160 / 154 40% 1 16.05.2027 -
William Saliba Arsenal Activo 175 / 177 40% 1 16.05.2027 -
Sven Botman Newcastle United Activo 160 / 154 40% 1 16.05.2027 -
Mats Wieffer Brighton Activo 143 / 148 40% 4 14.05.2027 -
Cody Gakpo Liverpool Activo 156 / 158 40% 1 14.05.2027 -
Alessandro Buongiorno Sassuolo Activo 153 / 157 40% 1 14.05.2027 -
Jacob Ramsey Newcastle United Activo 154 / 151 40% 2 11.05.2027 -
Mohammed Kudus Tottenham Activo 163 / 155 40% 3 11.05.2027 -
Kiernan Dewsbury-Hall Everton Activo 148 / 147 40% 2 11.05.2027 -
Tom Fellows Southampton Activo 134 / 131 40% 3 09.05.2027 -
Florian Wirtz Liverpool Activo 173 / 178 40% 2 09.05.2027 -
Rayan Cherki Manchester City Activo 161 / 159 40% 1 09.05.2027 -
Noussair Mazraoui Manchester United Activo 152 / 149 40% 3 08.05.2027 -
Francisco Conceição Juventus Activo 158 / 157 40% 1 07.05.2027 -
Kasey McAteer Ipswich Town Activo 126 / 127 40% 1 06.05.2027 -
Carlos Alcaraz Everton Activo 144 / 150 40% 4 03.05.2027 -
Nicolas Jackson Aston Villa Activo 154 / 152 40% 1 02.05.2027 -
Antoine Semenyo Manchester City Activo 165 / 152 40% 1 01.05.2027 -
Martin Ødegaard Arsenal Activo 184 / 178 40% 1 01.05.2027 -
João Pedro Chelsea Activo 157 / 160 40% 3 30.04.2027 Observar
Giacomo Raspadori Atalanta Activo 153 / 146 40% 7 30.04.2027 -
Ryan Sessegnon Fulham Activo 146 / 144 40% 1 29.04.2027 -
Sandro Tonali Tottenham Activo 173 / 175 40% 1 27.04.2027 -
Kevin Fulham Activo 147 / 147 40% 1 27.04.2027 -
Matt O'Riley Brighton Activo 144 / 148 40% 1 26.04.2027 -
Callum Hudson-Odoi Nottingham Forest Activo 147 / 151 40% 1 26.04.2027 -
William Gomes Porto Activo 148 / 140 40% 6 24.04.2027 -
Rico Lewis Manchester City Activo 147 / 158 40% 2 23.04.2027 -
Williams Manyama SuperSport United Activo 119 / 114 40% 1 23.04.2027 -
Jake O'Brien Everton Activo 147 / 153 40% 1 23.04.2027 -
Rodrigo Zalazar Sporting CP Activo 151 / 153 40% 2 21.04.2027 -
Morgan Rogers Chelsea Activo 164 / 163 40% 1 21.04.2027 -
Alejandro Zendejas Club America Activo 143 / 136 40% 5 20.04.2027 -
Iván Fresneda Sporting CP Activo 139 / 139 40% 3 18.04.2027 -
Francisco Moura Lusitânia Lourosa Activo 140 / 143 40% 4 18.04.2027 -
Mason Mount Manchester United Activo 151 / 151 40% 1 18.04.2027 -
Sergi Altimira Sporting CP Activo 137 / 143 40% 1 18.04.2027 -
Quinten Timber Crystal Palace Activo 155 / 147 40% 1 18.04.2027 -
Dodi Lukébakio Benfica Activo 149 / 143 40% 5 16.04.2027 -
Telmo Arcanjo Vitoria Guimaraes Activo 129 / 117 40% 2 15.04.2027 -
Ole Pohlmann Rio Ave Activo 123 / 125 40% 2 15.04.2027 -
Makan Aïko Tondela Activo 119 / 113 40% 2 14.04.2027 -
Finn Azaz Southampton Activo 129 / 131 40% 1 14.04.2027 -
Adrien Truffert Bournemouth Activo 156 / 155 40% 1 13.04.2027 -
João Mendes Vitoria Guimaraes Activo 122 / 122 40% 1 12.04.2027 -
Rodrigo Pinheiro Famalicao Activo 125 / 132 40% 1 12.04.2027 -
Welington Southampton Activo 127 / 131 40% 1 12.04.2027 -
Mario Dorgeles Braga Activo 132 / 133 40% 1 12.04.2027 -
Pau Víctor AVS Activo 138 / 129 40% 8 11.04.2027 -
Geny Sporting CP Activo 145 / 144 40% 5 11.04.2027 -
Naïs Djouahra Arouca Activo 126 / 115 40% 2 11.04.2027 -
Tamble Monteiro Rio Ave Activo 115 / 113 40% 1 06.04.2027 -
Joe Gelhardt Hull City Activo 130 / 140 40% 1 06.04.2027 -
Gustavo Silva Vitoria Guimaraes Activo 124 / 126 40% 3 05.04.2027 -
Nordi Mukiele Sunderland Activo 148 / 141 40% 3 03.04.2027 -
Xaver Schlager Nottingham Forest Activo 145 / 142 40% 4 03.04.2027 -
Ismaïla Sarr Crystal Palace Activo 151 / 143 40% 3 03.04.2027 -
Anton Stach Leeds United Activo 151 / 146 40% 3 02.04.2027 -
Osame Sahraoui LOSC Lille Activo 147 / 139 40% 4 31.03.2027 -
Hwang In-Beom Porto Activo 147 / 138 40% 4 31.03.2027 -
Che Adams Torino Activo 140 / 135 40% 1 31.03.2027 -
Joaquín Panichelli Le Havre AC Activo 149 / 139 40% 3 30.03.2027 -
Alfonso Trezza Arouca Activo 124 / 126 40% 2 29.03.2027 -
Morgan Whittaker Middlesbrough Activo 137 / 131 40% 4 29.03.2027 -
Santi García Gil Vicente Activo 131 / 137 40% 3 29.03.2027 -
Víctor Gómez Braga Activo 134 / 143 40% 3 28.03.2027 -
Malick Fofana Sunderland Activo 137 / 141 40% 2 28.03.2027 -
Heorhii Sudakov Benfica Activo 142 / 146 40% 4 26.03.2027 -
Tino Livramento Newcastle United Activo 161 / 151 40% 1 25.03.2027 -
Sofiane Diop OGC Nice Activo 141 / 145 40% 1 25.03.2027 -
Aaron Hickey Brentford Activo 144 / 152 40% 2 24.03.2027 -
Alberto Costa Porto Activo 149 / 153 40% 9 24.03.2027 -
Iker Benito Queretaro Activo 126 / 123 40% 2 24.03.2027 -
Ozziel Herrera Tigres Activo 132 / 131 40% 3 23.03.2027 -
Ansu Fati Monaco Activo 136 / 132 40% 1 22.03.2027 -
Figueiredo Alverca Activo 131 / 123 40% 6 20.03.2027 -
Valery Académico de Viseu Activo 122 / 120 40% 1 20.03.2027 -
Ritsu Doan Benfica Activo 147 / 156 40% 3 18.03.2027 -
Jhon Arias Palmeiras Activo 139 / 143 40% 2 18.03.2027 -
Fotis Ioannidis Rio Ave Activo 141 / 132 40% 2 17.03.2027 -
José Manuel López Palmeiras Activo 136 / 135 40% 5 17.03.2027 -
Erick Sánchez OGC Nice Activo 148 / 140 40% 7 17.03.2027 -
Leandro Antonetti Estrela da Amadora Activo 102 / 105 40% 1 17.03.2027 -
Yankuba Minteh Brighton Activo 154 / 159 40% 1 17.03.2027 -
Barış Alper Yılmaz Galatasaray Activo 145 / 151 40% 4 16.03.2027 -
Félix Lemaréchal Club Brugge Activo 143 / 144 40% 3 12.03.2027 -
Roberto Fernández Braga Activo 144 / 139 40% 3 11.03.2027 -
Amine Adli Bournemouth Activo 139 / 149 40% 2 08.03.2027 -
Gianluca Prestianni Benfica Activo 138 / 141 40% 2 04.03.2027 -
Orbelín Pineda Monterrey Activo 143 / 137 40% 2 03.03.2027 -
Dylan Nandín Arouca Activo 117 / 112 40% 1 01.03.2027 -
Nicolò Tresoldi Club Brugge Activo 132 / 140 40% 1 01.03.2027 -
Florentino Luís Ipswich Town Activo 137 / 133 40% 1 26.02.2027 -
Adriano Bertaccini Anderlecht Activo 127 / 127 40% 1 23.02.2027 -
Marezi Portsmouth Activo 120 / 124 40% 1 23.02.2027 -
Jalen Blesa Rio Ave Activo 115 / 125 40% 1 21.02.2027 -
Adnan Courtois KV Oostende Activo 139 / 134 40% 3 19.02.2027 -
Vinícius Lopes Santa Clara Activo 117 / 116 40% 1 19.02.2027 -
Will Lankshear Middlesbrough Activo 124 / 135 40% 1 19.02.2027 -
Toni Fruk KV Mechelen Activo 136 / 126 40% 1 19.02.2027 -
Jan Virgili Club Brugge Activo 134 / 126 40% 1 19.02.2027 -
Gabri Martínez Braga Activo 136 / 127 40% 2 17.02.2027 -
Juanlu Bournemouth Activo 144 / 140 40% 1 15.02.2027 -
Beni Mukendi Vitoria Guimaraes Activo 130 / 123 40% 1 15.02.2027 -
Victor Froholdt Porto Activo 144 / 163 40% 4 13.02.2027 -
Taichi Fukui Arouca Activo 130 / 136 40% 1 11.02.2027 -
Óscar Mingueza Crystal Palace Activo 151 / 146 40% 5 10.02.2027 -
Brian Rodríguez Club America Activo 128 / 124 40% 1 10.02.2027 -
Razvan Balasa Crvena Zvezda Activo 149 / 151 40% 8 07.02.2027 -
Henrique Araújo Casa Pia Activo 126 / 113 40% 2 06.02.2027 -
Guilherme Neiva AVS Activo 109 / 109 40% 1 05.02.2027 -
Evidence Makgopa Orlando Pirates Activo 112 / 119 40% 1 05.02.2027 -
Olívio Tomé Benfica Activo 111 / 118 40% 1 03.02.2027 -
Luís Henrique Inter Activo 139 / 147 40% 1 03.02.2027 -
Gonzalo Fulham Activo 142 / 149 40% 1 03.02.2027 -
Igor Burnley Activo 142 / 139 40% 1 03.02.2027 -
Aune Heggebø West Bromwich Albion Activo 126 / 132 40% 1 31.01.2027 -
Yousef Salech Cardiff City Activo 131 / 116 40% 1 31.01.2027 -
Martín Tejón Maritimo Activo 119 / 123 40% 2 25.01.2027 -
Miguel Falé Pacos de Ferreira Activo 100 / 111 40% 2 25.01.2027 -
Luis Vázquez Birmingham Activo 134 / 129 40% 1 25.01.2027 -
Gabriel Veron Porto Activo 129 / 125 40% 3 19.01.2027 -
Themba Ngcobo SuperSport United Activo 116 / 116 40% 1 08.01.2027 -
Manfred Ugalde Spartak Moscow Activo 138 / 127 40% 1 04.01.2027 -
Dawda Camara Alverca Activo 113 / 121 40% 1 23.12.2026 -
Ruben van Bommel Ferencvaros Activo 139 / 141 40% 1 22.12.2026 -
Matheus Pereira Cruzeiro Activo 138 / 144 40% 1 21.12.2026 -
Jean-Philippe Mateta Crystal Palace Activo 151 / 159 40% 11 30.11.2026 -
João Neves Paris Saint-Germain Activo 164 / 170 40% 1 29.11.2026 -
Rúben Neves Al-Hilal Activo 144 / 150 40% 1 28.11.2026 -
Leo Castledine Middlesbrough Activo 123 / 138 40% 1 27.11.2026 -
Robin Roefs Sunderland Activo 142 / 138 40% 1 25.11.2026 -
Vanderson Monaco Activo 145 / 146 40% 1 21.11.2026 -
Omar Alderete Sunderland Activo 154 / 148 40% 1 20.11.2026 -
Lewis Cook Bournemouth Activo 144 / 147 40% 3 19.11.2026 -
Vangelis Pavlidis Twente Activo 149 / 157 40% 8 17.11.2026 -
Lisandro Martínez Manchester United Activo 159 / 161 40% 4 17.11.2026 -
Dominic Solanke Tottenham Activo 153 / 146 40% 4 17.11.2026 -
Tiago Santos LOSC Lille Activo 141 / 138 40% 2 15.11.2026 -
Steven Bergwijn Al-Ittihad Activo 144 / 152 40% 4 13.11.2026 -
Pau Torres Aston Villa Activo 155 / 141 40% 3 09.11.2026 -
Randal Kolo Muani Juventus Activo 146 / 150 40% 3 09.11.2026 -
Matvey Safonov Paris Saint-Germain Activo 149 / 151 40% 4 07.11.2026 -
Senne Lammens Manchester United Activo 141 / 146 40% 2 07.11.2026 -
Patrick Berg Bodo/Glimt Activo 137 / 147 40% 2 03.11.2026 -
Tomás Araújo Benfica Activo 147 / 136 40% 3 03.11.2026 -
Luis Suárez Chelsea Activo 158 / 161 40% 4 01.11.2026 -
Fikayo Tomori AC Milan Activo 145 / 154 40% 1 30.10.2026 -
Pedro Porro Tottenham Activo 146 / 136 40% 1 27.10.2026 -
Cheick Doucouré Crystal Palace Activo 146 / 144 40% 2 24.10.2026 -
Alan Varela Porto Activo 138 / 138 40% 2 22.10.2026 -
Gonçalo Inácio Sporting CP Activo 151 / 147 40% 2 21.10.2026 -
Dean Henderson Crystal Palace Activo 147 / 139 40% 2 19.10.2026 -
Endrick Real Madrid Activo 141 / 148 40% 1 17.10.2026 -
Malick Thiaw West Ham United Activo 156 / 146 40% 2 13.10.2026 -
Elliot Anderson Manchester City Activo 155 / 149 40% 1 13.10.2026 -
Diogo Costa Manchester City Activo 156 / 155 40% 1 11.10.2026 -
Erick Reyes Toluca Activo 135 / 134 40% 1 08.10.2026 -
Conor Gallagher Tottenham Activo 149 / 157 40% 2 02.10.2026 -
Ferdi Kadıoğlu Brighton Activo 148 / 149 40% 1 02.10.2026 -
Mateo Mendoza Godoy Cruz Activo 118 / 121 40% 1 01.10.2026 -
Jack Hinshelwood Brighton Activo 141 / 143 40% 1 30.09.2026 -
Pierre Kalulu Juventus Activo 157 / 161 40% 1 30.09.2026 -
Ousmane Diomande Nottingham Forest Activo 152 / 145 40% 1 29.09.2026 -
Gabriel Gudmundsson Leeds United Activo 145 / 151 40% 1 27.09.2026 -
Ian Maatsen Aston Villa Activo 145 / 145 40% 1 27.09.2026 -
Malo Gusto Chelsea Activo 146 / 156 40% 2 26.09.2026 -
Martim Fernandes Porto Activo 133 / 138 40% 1 26.09.2026 -
Matty Cash Aston Villa Activo 152 / 156 40% 1 21.09.2026 -
Guillaume Restes Toulouse FC Activo 129 / 128 40% 1 20.09.2026 -
Yehvann Diouf OGC Nice Activo 136 / 131 40% 1 20.09.2026 -
Josep Martínez Inter Activo 134 / 138 40% 1 19.09.2026 -
Edoardo Motta Lazio Activo 113 / 135 40% 1 19.09.2026 -
Francesco Pio Esposito Inter Activo 139 / 136 40% 2 16.09.2026 -
Benjamin White Arsenal Activo 154 / 145 40% 2 14.09.2026 -
Marcus Rashford Manchester United Activo 161 / 153 40% 6 13.09.2026 -
Antonee Robinson Fulham Activo 157 / 141 40% 1 13.09.2026 -
Santiago Castro AS Roma Activo 146 / 154 40% 1 10.09.2026 -
Assane Diao Lazio Activo 137 / 138 40% 1 07.09.2026 -
Gonçalo Ramos AC Milan Activo 157 / 157 40% 2 02.09.2026 -
Dušan Vlahović Juventus Activo 159 / 160 40% 1 02.09.2026 -
Erick Vitória Activo 132 / 132 30% 1 / 1m 26.08.2026 -
Jarrod Bowen West Ham United Activo 159 / 146 40% 2 25.08.2026 -
Matías Fernández-Pardo Newcastle United Activo 135 / 146 40% 1 25.08.2026 -
Luca Koleosho Paris FC Activo 121 / 141 40% 1 20.08.2026 -
Jader Santa Clara Activo 114 / 117 56% 2 / 2m 19.08.2026 -
Fabri Vitória Activo 124 / 124 52% 1 / 1m 19.08.2026 -
Anderson Pato Vitória Activo 100 / 103 42% 1 / 1m 19.08.2026 -
Ilyas Ansah Hull City Activo 127 / 138 40% 1 18.08.2026 -
Ferran Torres Paris Saint-Germain Activo 166 / 156 40% 1 18.08.2026 -
Mateus Mané Manchester United Activo 130 / 147 40% 1 15.08.2026 -
Lima Atletico Goianiense Activo 84 / 89 30% 1 / 1m 12.08.2026 -
André Luís Mirassol Activo 123 / 123 30% 1 / 1m 12.08.2026 -
Georges Mikautadze Villarreal Activo 151 / 156 40% 1 09.08.2026 -
Rayan Bournemouth Activo 136 / 145 40% 1 07.08.2026 -
Senny Mayulu Paris Saint-Germain Activo 142 / 141 40% 1 06.08.2026 -
Donyell Malen AS Roma Activo 141 / 148 40% 1 06.08.2026 -
Dani Vivian Athletic Bilbao Activo 155 / 159 40% 1 06.08.2026 -
Marc Cucurella Real Madrid Activo 155 / 140 40% 1 06.08.2026 -
Jaka Bijol Leeds United Activo 149 / 143 40% 1 06.08.2026 -
Adam Wharton Crystal Palace Activo 142 / 147 40% 1 03.08.2026 -
João Simões Sporting CP Activo 131 / 138 40% 1 02.08.2026 -
Ismael Saibari Bayern Munich Activo 148 / 143 40% 1 01.08.2026 -